sensor_id;sensor_type;location;lat;lon;timestamp;P1;durP1;ratioP1;P2;durP2;ratioP2
49566;SDS011;35472;50.514;30.448;2023-11-22T00:00:58;27.75;;;13.02;;
49566;SDS011;35472;50.514;30.448;2023-11-22T00:03:24;22.45;;;14.30;;
49566;SDS011;35472;50.514;30.448;2023-11-22T00:05:50;23.73;;;13.70;;
49566;SDS011;35472;50.514;30.448;2023-11-22T00:08:16;24.48;;;13.23;;
49566;SDS011;35472;50.514;30.448;2023-11-22T00:10:42;21.30;;;13.40;;
49566;SDS011;35472;50.514;30.448;2023-11-22T00:13:09;24.90;;;14.32;;
49566;SDS011;35472;50.514;30.448;2023-11-22T00:15:36;21.77;;;12.57;;
49566;SDS011;35472;50.514;30.448;2023-11-22T00:18:02;28.40;;;14.70;;
49566;SDS011;35472;50.514;30.448;2023-11-22T00:20:29;23.67;;;13.43;;
49566;SDS011;35472;50.514;30.448;2023-11-22T00:22:55;27.77;;;14.02;;
49566;SDS011;35472;50.514;30.448;2023-11-22T00:25:21;22.98;;;13.57;;
49566;SDS011;35472;50.514;30.448;2023-11-22T00:27:47;25.55;;;13.82;;
49566;SDS011;35472;50.514;30.448;2023-11-22T00:30:13;25.10;;;13.90;;
49566;SDS011;35472;50.514;30.448;2023-11-22T00:32:39;21.88;;;13.27;;
49566;SDS011;35472;50.514;30.448;2023-11-22T00:35:08;23.75;;;12.93;;
49566;SDS011;35472;50.514;30.448;2023-11-22T00:37:35;24.83;;;13.48;;
49566;SDS011;35472;50.514;30.448;2023-11-22T00:40:01;22.15;;;15.05;;
49566;SDS011;35472;50.514;30.448;2023-11-22T00:42:36;24.48;;;15.40;;
49566;SDS011;35472;50.514;30.448;2023-11-22T00:45:03;28.77;;;15.85;;
49566;SDS011;35472;50.514;30.448;2023-11-22T00:47:31;19.58;;;12.55;;
49566;SDS011;35472;50.514;30.448;2023-11-22T00:50:00;18.05;;;11.68;;
49566;SDS011;35472;50.514;30.448;2023-11-22T00:52:27;28.25;;;14.15;;
49566;SDS011;35472;50.514;30.448;2023-11-22T00:54:52;24.20;;;12.85;;
49566;SDS011;35472;50.514;30.448;2023-11-22T00:57:18;22.65;;;12.80;;
49566;SDS011;35472;50.514;30.448;2023-11-22T00:59:44;27.50;;;13.48;;
49566;SDS011;35472;50.514;30.448;2023-11-22T01:02:09;22.33;;;13.32;;
49566;SDS011;35472;50.514;30.448;2023-11-22T01:04:35;26.13;;;14.80;;
49566;SDS011;35472;50.514;30.448;2023-11-22T01:07:02;24.83;;;13.93;;
49566;SDS011;35472;50.514;30.448;2023-11-22T01:09:29;25.02;;;13.70;;
49566;SDS011;35472;50.514;30.448;2023-11-22T01:11:57;23.90;;;14.32;;
49566;SDS011;35472;50.514;30.448;2023-11-22T01:14:23;22.63;;;13.68;;
49566;SDS011;35472;50.514;30.448;2023-11-22T01:16:49;23.65;;;13.73;;
49566;SDS011;35472;50.514;30.448;2023-11-22T01:19:15;28.85;;;15.48;;
49566;SDS011;35472;50.514;30.448;2023-11-22T01:21:40;24.92;;;12.77;;
49566;SDS011;35472;50.514;30.448;2023-11-22T01:24:06;24.73;;;12.80;;
49566;SDS011;35472;50.514;30.448;2023-11-22T01:26:31;28.52;;;14.02;;
49566;SDS011;35472;50.514;30.448;2023-11-22T01:28:57;25.92;;;14.85;;
49566;SDS011;35472;50.514;30.448;2023-11-22T01:31:24;21.90;;;12.63;;
49566;SDS011;35472;50.514;30.448;2023-11-22T01:33:49;21.42;;;12.35;;
49566;SDS011;35472;50.514;30.448;2023-11-22T01:36:15;19.70;;;12.90;;
49566;SDS011;35472;50.514;30.448;2023-11-22T01:38:42;21.67;;;13.13;;
49566;SDS011;35472;50.514;30.448;2023-11-22T01:41:09;19.65;;;11.82;;
49566;SDS011;35472;50.514;30.448;2023-11-22T01:43:38;24.02;;;14.93;;
49566;SDS011;35472;50.514;30.448;2023-11-22T01:46:05;22.95;;;12.90;;
49566;SDS011;35472;50.514;30.448;2023-11-22T01:48:32;25.40;;;13.98;;
49566;SDS011;35472;50.514;30.448;2023-11-22T01:50:58;25.05;;;14.43;;
49566;SDS011;35472;50.514;30.448;2023-11-22T01:53:24;22.10;;;13.38;;
49566;SDS011;35472;50.514;30.448;2023-11-22T01:55:50;20.58;;;13.02;;
49566;SDS011;35472;50.514;30.448;2023-11-22T01:58:16;19.25;;;12.32;;
49566;SDS011;35472;50.514;30.448;2023-11-22T02:00:45;21.95;;;12.15;;
49566;SDS011;35472;50.514;30.448;2023-11-22T02:03:17;21.35;;;13.40;;
49566;SDS011;35472;50.514;30.448;2023-11-22T02:05:46;25.80;;;13.88;;
49566;SDS011;35472;50.514;30.448;2023-11-22T02:08:12;23.70;;;12.85;;
49566;SDS011;35472;50.514;30.448;2023-11-22T02:10:38;25.95;;;13.18;;
49566;SDS011;35472;50.514;30.448;2023-11-22T02:13:05;23.52;;;12.63;;
49566;SDS011;35472;50.514;30.448;2023-11-22T02:15:33;24.60;;;13.10;;
49566;SDS011;35472;50.514;30.448;2023-11-22T02:17:59;24.85;;;13.23;;
49566;SDS011;35472;50.514;30.448;2023-11-22T02:20:25;19.55;;;12.13;;
49566;SDS011;35472;50.514;30.448;2023-11-22T02:22:50;26.00;;;15.13;;
49566;SDS011;35472;50.514;30.448;2023-11-22T02:25:18;25.98;;;14.15;;
49566;SDS011;35472;50.514;30.448;2023-11-22T02:27:44;24.90;;;12.68;;
49566;SDS011;35472;50.514;30.448;2023-11-22T02:30:10;20.58;;;13.70;;
49566;SDS011;35472;50.514;30.448;2023-11-22T02:32:36;26.45;;;13.88;;
49566;SDS011;35472;50.514;30.448;2023-11-22T02:35:02;24.95;;;13.95;;
49566;SDS011;35472;50.514;30.448;2023-11-22T02:37:32;21.63;;;13.63;;
49566;SDS011;35472;50.514;30.448;2023-11-22T02:42:43;22.65;;;13.55;;
49566;SDS011;35472;50.514;30.448;2023-11-22T02:45:09;26.88;;;14.20;;
49566;SDS011;35472;50.514;30.448;2023-11-22T02:47:35;18.40;;;12.95;;
49566;SDS011;35472;50.514;30.448;2023-11-22T02:50:02;24.65;;;13.75;;
49566;SDS011;35472;50.514;30.448;2023-11-22T02:52:29;23.90;;;13.45;;
49566;SDS011;35472;50.514;30.448;2023-11-22T02:54:54;23.73;;;13.05;;
49566;SDS011;35472;50.514;30.448;2023-11-22T02:57:20;25.83;;;12.30;;
49566;SDS011;35472;50.514;30.448;2023-11-22T02:59:45;28.45;;;11.93;;
49566;SDS011;35472;50.514;30.448;2023-11-22T03:02:11;22.27;;;13.10;;
49566;SDS011;35472;50.514;30.448;2023-11-22T03:04:37;25.30;;;13.07;;
49566;SDS011;35472;50.514;30.448;2023-11-22T03:07:03;22.65;;;13.82;;
49566;SDS011;35472;50.514;30.448;2023-11-22T03:09:31;26.17;;;13.10;;
49566;SDS011;35472;50.514;30.448;2023-11-22T03:11:57;24.13;;;12.68;;
49566;SDS011;35472;50.514;30.448;2023-11-22T03:14:23;19.95;;;13.10;;
49566;SDS011;35472;50.514;30.448;2023-11-22T03:16:49;21.42;;;12.50;;
49566;SDS011;35472;50.514;30.448;2023-11-22T03:19:14;21.90;;;11.88;;
49566;SDS011;35472;50.514;30.448;2023-11-22T03:21:40;25.80;;;13.57;;
49566;SDS011;35472;50.514;30.448;2023-11-22T03:24:09;20.65;;;13.38;;
49566;SDS011;35472;50.514;30.448;2023-11-22T03:26:35;21.40;;;13.10;;
49566;SDS011;35472;50.514;30.448;2023-11-22T03:29:01;23.88;;;14.25;;
49566;SDS011;35472;50.514;30.448;2023-11-22T03:31:27;24.25;;;11.73;;
49566;SDS011;35472;50.514;30.448;2023-11-22T03:33:56;22.20;;;12.98;;
49566;SDS011;35472;50.514;30.448;2023-11-22T03:36:22;20.88;;;12.73;;
49566;SDS011;35472;50.514;30.448;2023-11-22T03:38:49;22.85;;;12.70;;
49566;SDS011;35472;50.514;30.448;2023-11-22T03:41:15;21.98;;;13.30;;
49566;SDS011;35472;50.514;30.448;2023-11-22T03:43:42;19.73;;;11.75;;
49566;SDS011;35472;50.514;30.448;2023-11-22T03:46:08;22.90;;;11.88;;
49566;SDS011;35472;50.514;30.448;2023-11-22T03:48:35;19.00;;;12.40;;
49566;SDS011;35472;50.514;30.448;2023-11-22T03:51:00;21.00;;;12.48;;
49566;SDS011;35472;50.514;30.448;2023-11-22T03:53:26;22.33;;;13.43;;
49566;SDS011;35472;50.514;30.448;2023-11-22T03:55:58;26.25;;;13.07;;
49566;SDS011;35472;50.514;30.448;2023-11-22T03:58:23;16.13;;;11.60;;
49566;SDS011;35472;50.514;30.448;2023-11-22T04:00:51;21.40;;;13.15;;
49566;SDS011;35472;50.514;30.448;2023-11-22T04:03:17;22.23;;;12.52;;
49566;SDS011;35472;50.514;30.448;2023-11-22T04:05:44;25.45;;;13.15;;
49566;SDS011;35472;50.514;30.448;2023-11-22T04:08:09;20.98;;;12.45;;
49566;SDS011;35472;50.514;30.448;2023-11-22T04:10:35;19.25;;;12.05;;
49566;SDS011;35472;50.514;30.448;2023-11-22T04:13:00;21.25;;;12.30;;
49566;SDS011;35472;50.514;30.448;2023-11-22T04:15:26;22.15;;;12.80;;
49566;SDS011;35472;50.514;30.448;2023-11-22T04:17:52;22.85;;;12.70;;
49566;SDS011;35472;50.514;30.448;2023-11-22T04:20:20;19.40;;;12.35;;
49566;SDS011;35472;50.514;30.448;2023-11-22T04:22:45;24.75;;;12.48;;
49566;SDS011;35472;50.514;30.448;2023-11-22T04:25:11;22.92;;;14.05;;
49566;SDS011;35472;50.514;30.448;2023-11-22T04:27:40;23.25;;;15.13;;
49566;SDS011;35472;50.514;30.448;2023-11-22T04:30:06;22.73;;;12.73;;
49566;SDS011;35472;50.514;30.448;2023-11-22T04:32:34;24.20;;;14.15;;
49566;SDS011;35472;50.514;30.448;2023-11-22T04:35:01;25.67;;;13.70;;
49566;SDS011;35472;50.514;30.448;2023-11-22T04:37:29;22.73;;;12.65;;
49566;SDS011;35472;50.514;30.448;2023-11-22T04:39:57;20.05;;;12.35;;
49566;SDS011;35472;50.514;30.448;2023-11-22T04:42:33;26.08;;;13.35;;
49566;SDS011;35472;50.514;30.448;2023-11-22T04:45:00;26.63;;;15.20;;
49566;SDS011;35472;50.514;30.448;2023-11-22T04:47:26;29.65;;;16.10;;
49566;SDS011;35472;50.514;30.448;2023-11-22T04:49:52;24.25;;;14.68;;
49566;SDS011;35472;50.514;30.448;2023-11-22T04:52:17;28.60;;;16.10;;
49566;SDS011;35472;50.514;30.448;2023-11-22T04:54:43;27.42;;;16.05;;
49566;SDS011;35472;50.514;30.448;2023-11-22T04:57:08;32.67;;;16.48;;
49566;SDS011;35472;50.514;30.448;2023-11-22T04:59:34;24.40;;;14.80;;
49566;SDS011;35472;50.514;30.448;2023-11-22T05:02:00;31.88;;;18.10;;
49566;SDS011;35472;50.514;30.448;2023-11-22T05:04:25;35.28;;;17.95;;
49566;SDS011;35472;50.514;30.448;2023-11-22T05:06:52;23.50;;;15.60;;
49566;SDS011;35472;50.514;30.448;2023-11-22T05:09:18;25.65;;;16.30;;
49566;SDS011;35472;50.514;30.448;2023-11-22T05:11:45;28.35;;;16.30;;
49566;SDS011;35472;50.514;30.448;2023-11-22T05:14:11;25.10;;;16.00;;
49566;SDS011;35472;50.514;30.448;2023-11-22T05:16:36;29.65;;;15.93;;
49566;SDS011;35472;50.514;30.448;2023-11-22T05:19:02;27.20;;;15.75;;
49566;SDS011;35472;50.514;30.448;2023-11-22T05:21:28;28.50;;;16.08;;
49566;SDS011;35472;50.514;30.448;2023-11-22T05:23:55;23.10;;;13.07;;
49566;SDS011;35472;50.514;30.448;2023-11-22T05:26:20;27.70;;;14.13;;
49566;SDS011;35472;50.514;30.448;2023-11-22T05:28:47;21.33;;;12.10;;
49566;SDS011;35472;50.514;30.448;2023-11-22T05:31:13;18.17;;;12.07;;
49566;SDS011;35472;50.514;30.448;2023-11-22T05:33:39;24.10;;;13.85;;
49566;SDS011;35472;50.514;30.448;2023-11-22T05:36:06;20.88;;;13.50;;
49566;SDS011;35472;50.514;30.448;2023-11-22T05:38:31;19.98;;;11.80;;
49566;SDS011;35472;50.514;30.448;2023-11-22T05:40:59;20.35;;;11.60;;
49566;SDS011;35472;50.514;30.448;2023-11-22T05:43:25;18.50;;;11.20;;
49566;SDS011;35472;50.514;30.448;2023-11-22T05:45:54;20.10;;;12.52;;
49566;SDS011;35472;50.514;30.448;2023-11-22T05:48:20;18.88;;;11.77;;
49566;SDS011;35472;50.514;30.448;2023-11-22T05:50:46;19.63;;;11.43;;
49566;SDS011;35472;50.514;30.448;2023-11-22T05:53:12;18.08;;;11.40;;
49566;SDS011;35472;50.514;30.448;2023-11-22T05:55:45;18.42;;;9.40;;
49566;SDS011;35472;50.514;30.448;2023-11-22T05:58:12;14.50;;;9.15;;
49566;SDS011;35472;50.514;30.448;2023-11-22T06:00:42;14.63;;;9.77;;
49566;SDS011;35472;50.514;30.448;2023-11-22T06:03:12;15.30;;;9.43;;
49566;SDS011;35472;50.514;30.448;2023-11-22T06:05:38;12.70;;;7.95;;
49566;SDS011;35472;50.514;30.448;2023-11-22T06:08:04;12.13;;;8.13;;
49566;SDS011;35472;50.514;30.448;2023-11-22T06:10:30;11.60;;;7.40;;
49566;SDS011;35472;50.514;30.448;2023-11-22T06:12:55;12.45;;;9.35;;
49566;SDS011;35472;50.514;30.448;2023-11-22T06:15:21;12.30;;;7.65;;
49566;SDS011;35472;50.514;30.448;2023-11-22T06:17:47;11.30;;;8.02;;
49566;SDS011;35472;50.514;30.448;2023-11-22T06:20:13;13.77;;;7.85;;
49566;SDS011;35472;50.514;30.448;2023-11-22T06:22:39;16.38;;;8.15;;
49566;SDS011;35472;50.514;30.448;2023-11-22T06:25:13;13.40;;;7.75;;
49566;SDS011;35472;50.514;30.448;2023-11-22T06:27:39;12.00;;;8.20;;
49566;SDS011;35472;50.514;30.448;2023-11-22T06:30:05;10.50;;;7.07;;
49566;SDS011;35472;50.514;30.448;2023-11-22T06:32:31;10.43;;;7.60;;
49566;SDS011;35472;50.514;30.448;2023-11-22T06:34:58;16.38;;;8.00;;
49566;SDS011;35472;50.514;30.448;2023-11-22T06:37:23;9.82;;;7.82;;
49566;SDS011;35472;50.514;30.448;2023-11-22T06:39:49;13.10;;;7.15;;
49566;SDS011;35472;50.514;30.448;2023-11-22T06:42:16;14.15;;;8.75;;
49566;SDS011;35472;50.514;30.448;2023-11-22T06:44:42;10.32;;;6.20;;
49566;SDS011;35472;50.514;30.448;2023-11-22T06:47:07;12.80;;;7.97;;
49566;SDS011;35472;50.514;30.448;2023-11-22T06:49:33;15.45;;;7.55;;
49566;SDS011;35472;50.514;30.448;2023-11-22T06:51:59;10.20;;;6.68;;
49566;SDS011;35472;50.514;30.448;2023-11-22T06:54:24;12.55;;;7.65;;
49566;SDS011;35472;50.514;30.448;2023-11-22T06:56:53;9.93;;;5.32;;
49566;SDS011;35472;50.514;30.448;2023-11-22T06:59:57;11.50;;;7.13;;
49566;SDS011;35472;50.514;30.448;2023-11-22T07:02:23;9.85;;;6.07;;
49566;SDS011;35472;50.514;30.448;2023-11-22T07:04:50;9.30;;;6.43;;
49566;SDS011;35472;50.514;30.448;2023-11-22T07:07:17;8.30;;;5.20;;
49566;SDS011;35472;50.514;30.448;2023-11-22T07:09:42;8.60;;;5.35;;
49566;SDS011;35472;50.514;30.448;2023-11-22T07:12:09;9.18;;;6.00;;
49566;SDS011;35472;50.514;30.448;2023-11-22T07:14:35;8.52;;;4.65;;
49566;SDS011;35472;50.514;30.448;2023-11-22T07:17:01;6.60;;;4.70;;
49566;SDS011;35472;50.514;30.448;2023-11-22T07:19:29;5.45;;;4.30;;
49566;SDS011;35472;50.514;30.448;2023-11-22T07:21:55;6.85;;;4.38;;
49566;SDS011;35472;50.514;30.448;2023-11-22T07:24:21;6.13;;;4.82;;
49566;SDS011;35472;50.514;30.448;2023-11-22T07:26:46;6.70;;;4.75;;
49566;SDS011;35472;50.514;30.448;2023-11-22T07:29:12;5.70;;;4.03;;
49566;SDS011;35472;50.514;30.448;2023-11-22T07:31:38;6.03;;;4.15;;
49566;SDS011;35472;50.514;30.448;2023-11-22T07:34:04;5.57;;;3.75;;
49566;SDS011;35472;50.514;30.448;2023-11-22T07:36:31;6.10;;;4.63;;
49566;SDS011;35472;50.514;30.448;2023-11-22T07:38:56;5.75;;;4.57;;
49566;SDS011;35472;50.514;30.448;2023-11-22T07:41:23;6.15;;;4.05;;
49566;SDS011;35472;50.514;30.448;2023-11-22T07:43:48;5.65;;;4.05;;
49566;SDS011;35472;50.514;30.448;2023-11-22T07:46:14;5.82;;;3.65;;
49566;SDS011;35472;50.514;30.448;2023-11-22T07:48:42;5.68;;;3.92;;
49566;SDS011;35472;50.514;30.448;2023-11-22T07:51:08;7.90;;;4.25;;
49566;SDS011;35472;50.514;30.448;2023-11-22T07:53:34;6.40;;;3.80;;
49566;SDS011;35472;50.514;30.448;2023-11-22T07:56:00;7.13;;;3.75;;
49566;SDS011;35472;50.514;30.448;2023-11-22T07:58:30;5.00;;;3.90;;
49566;SDS011;35472;50.514;30.448;2023-11-22T08:00:59;4.65;;;3.45;;
49566;SDS011;35472;50.514;30.448;2023-11-22T08:03:25;7.10;;;4.53;;
49566;SDS011;35472;50.514;30.448;2023-11-22T08:05:51;15.77;;;5.43;;
49566;SDS011;35472;50.514;30.448;2023-11-22T08:08:19;8.23;;;4.82;;
49566;SDS011;35472;50.514;30.448;2023-11-22T08:10:45;7.95;;;4.43;;
49566;SDS011;35472;50.514;30.448;2023-11-22T08:13:13;7.50;;;4.72;;
49566;SDS011;35472;50.514;30.448;2023-11-22T08:15:38;5.55;;;4.50;;
49566;SDS011;35472;50.514;30.448;2023-11-22T08:18:04;7.97;;;3.92;;
49566;SDS011;35472;50.514;30.448;2023-11-22T08:20:31;8.50;;;4.80;;
49566;SDS011;35472;50.514;30.448;2023-11-22T08:22:56;6.63;;;3.88;;
49566;SDS011;35472;50.514;30.448;2023-11-22T08:25:22;7.80;;;4.78;;
49566;SDS011;35472;50.514;30.448;2023-11-22T08:27:48;9.00;;;5.05;;
49566;SDS011;35472;50.514;30.448;2023-11-22T08:30:14;10.18;;;5.80;;
49566;SDS011;35472;50.514;30.448;2023-11-22T08:32:44;10.10;;;5.93;;
49566;SDS011;35472;50.514;30.448;2023-11-22T08:35:16;9.45;;;5.88;;
49566;SDS011;35472;50.514;30.448;2023-11-22T08:37:43;14.02;;;8.02;;
49566;SDS011;35472;50.514;30.448;2023-11-22T08:40:33;9.93;;;5.10;;
49566;SDS011;35472;50.514;30.448;2023-11-22T08:43:02;9.80;;;5.20;;
49566;SDS011;35472;50.514;30.448;2023-11-22T08:45:29;6.60;;;3.88;;
49566;SDS011;35472;50.514;30.448;2023-11-22T08:47:56;4.18;;;3.75;;
49566;SDS011;35472;50.514;30.448;2023-11-22T08:50:22;7.90;;;4.50;;
49566;SDS011;35472;50.514;30.448;2023-11-22T08:52:49;5.82;;;3.92;;
49566;SDS011;35472;50.514;30.448;2023-11-22T08:55:18;7.88;;;4.65;;
49566;SDS011;35472;50.514;30.448;2023-11-22T08:57:47;5.15;;;3.17;;
49566;SDS011;35472;50.514;30.448;2023-11-22T09:00:13;7.07;;;3.90;;
49566;SDS011;35472;50.514;30.448;2023-11-22T09:02:39;5.13;;;3.63;;
49566;SDS011;35472;50.514;30.448;2023-11-22T09:05:05;4.60;;;3.22;;
49566;SDS011;35472;50.514;30.448;2023-11-22T09:07:33;6.45;;;4.47;;
49566;SDS011;35472;50.514;30.448;2023-11-22T09:10:01;6.30;;;4.93;;
49566;SDS011;35472;50.514;30.448;2023-11-22T09:12:35;5.05;;;3.10;;
49566;SDS011;35472;50.514;30.448;2023-11-22T09:15:02;7.68;;;4.35;;
49566;SDS011;35472;50.514;30.448;2023-11-22T09:17:29;7.93;;;4.50;;
49566;SDS011;35472;50.514;30.448;2023-11-22T09:19:56;9.38;;;5.65;;
49566;SDS011;35472;50.514;30.448;2023-11-22T09:22:23;6.78;;;4.18;;
49566;SDS011;35472;50.514;30.448;2023-11-22T09:24:51;6.95;;;4.57;;
49566;SDS011;35472;50.514;30.448;2023-11-22T09:27:17;7.57;;;4.40;;
49566;SDS011;35472;50.514;30.448;2023-11-22T09:29:43;7.80;;;4.32;;
49566;SDS011;35472;50.514;30.448;2023-11-22T09:32:10;6.53;;;4.13;;
49566;SDS011;35472;50.514;30.448;2023-11-22T09:34:35;7.97;;;4.40;;
49566;SDS011;35472;50.514;30.448;2023-11-22T09:37:01;7.30;;;4.40;;
49566;SDS011;35472;50.514;30.448;2023-11-22T09:39:26;8.27;;;4.88;;
49566;SDS011;35472;50.514;30.448;2023-11-22T09:41:55;6.70;;;4.75;;
49566;SDS011;35472;50.514;30.448;2023-11-22T09:44:21;7.50;;;3.67;;
49566;SDS011;35472;50.514;30.448;2023-11-22T09:46:48;8.02;;;4.47;;
49566;SDS011;35472;50.514;30.448;2023-11-22T09:49:14;6.45;;;3.55;;
49566;SDS011;35472;50.514;30.448;2023-11-22T09:51:47;5.00;;;3.85;;
49566;SDS011;35472;50.514;30.448;2023-11-22T09:54:16;4.38;;;3.65;;
49566;SDS011;35472;50.514;30.448;2023-11-22T09:56:44;6.55;;;3.95;;
49566;SDS011;35472;50.514;30.448;2023-11-22T09:59:15;5.35;;;4.00;;
49566;SDS011;35472;50.514;30.448;2023-11-22T10:01:42;5.60;;;3.90;;
49566;SDS011;35472;50.514;30.448;2023-11-22T10:04:08;7.53;;;4.38;;
49566;SDS011;35472;50.514;30.448;2023-11-22T10:06:34;4.93;;;3.33;;
49566;SDS011;35472;50.514;30.448;2023-11-22T10:09:03;4.03;;;3.47;;
49566;SDS011;35472;50.514;30.448;2023-11-22T10:11:34;4.05;;;3.42;;
49566;SDS011;35472;50.514;30.448;2023-11-22T10:14:03;7.47;;;4.38;;
49566;SDS011;35472;50.514;30.448;2023-11-22T10:16:30;5.13;;;3.85;;
49566;SDS011;35472;50.514;30.448;2023-11-22T10:18:55;13.73;;;5.05;;
49566;SDS011;35472;50.514;30.448;2023-11-22T10:21:23;8.27;;;4.60;;
49566;SDS011;35472;50.514;30.448;2023-11-22T10:23:55;5.45;;;4.50;;
49566;SDS011;35472;50.514;30.448;2023-11-22T10:26:22;8.00;;;4.03;;
49566;SDS011;35472;50.514;30.448;2023-11-22T10:28:51;6.72;;;4.03;;
49566;SDS011;35472;50.514;30.448;2023-11-22T10:31:18;7.57;;;4.20;;
49566;SDS011;35472;50.514;30.448;2023-11-22T10:33:47;3.95;;;3.30;;
49566;SDS011;35472;50.514;30.448;2023-11-22T10:36:13;7.28;;;4.28;;
49566;SDS011;35472;50.514;30.448;2023-11-22T10:38:40;5.38;;;3.55;;
49566;SDS011;35472;50.514;30.448;2023-11-22T10:41:07;10.48;;;4.72;;
49566;SDS011;35472;50.514;30.448;2023-11-22T10:43:35;6.30;;;3.75;;
49566;SDS011;35472;50.514;30.448;2023-11-22T10:46:02;5.80;;;4.93;;
49566;SDS011;35472;50.514;30.448;2023-11-22T10:48:28;8.15;;;4.45;;
49566;SDS011;35472;50.514;30.448;2023-11-22T10:50:56;4.38;;;3.70;;
49566;SDS011;35472;50.514;30.448;2023-11-22T10:53:23;5.28;;;3.50;;
49566;SDS011;35472;50.514;30.448;2023-11-22T10:55:59;6.43;;;3.95;;
49566;SDS011;35472;50.514;30.448;2023-11-22T10:58:29;7.88;;;4.78;;
49566;SDS011;35472;50.514;30.448;2023-11-22T11:00:58;9.43;;;5.50;;
49566;SDS011;35472;50.514;30.448;2023-11-22T11:03:25;7.82;;;4.90;;
49566;SDS011;35472;50.514;30.448;2023-11-22T11:06:01;7.80;;;4.72;;
49566;SDS011;35472;50.514;30.448;2023-11-22T11:08:29;6.68;;;4.00;;
49566;SDS011;35472;50.514;30.448;2023-11-22T11:10:56;6.50;;;3.70;;
49566;SDS011;35472;50.514;30.448;2023-11-22T11:13:24;8.65;;;4.35;;
49566;SDS011;35472;50.514;30.448;2023-11-22T11:15:51;6.93;;;4.13;;
49566;SDS011;35472;50.514;30.448;2023-11-22T11:18:18;7.40;;;4.38;;
49566;SDS011;35472;50.514;30.448;2023-11-22T11:23:15;6.43;;;4.82;;
49566;SDS011;35472;50.514;30.448;2023-11-22T11:25:49;7.18;;;4.95;;
49566;SDS011;35472;50.514;30.448;2023-11-22T11:28:15;6.38;;;4.28;;
49566;SDS011;35472;50.514;30.448;2023-11-22T11:33:11;4.75;;;3.22;;
49566;SDS011;35472;50.514;30.448;2023-11-22T11:38:06;5.90;;;3.42;;
49566;SDS011;35472;50.514;30.448;2023-11-22T11:40:34;5.50;;;4.07;;
49566;SDS011;35472;50.514;30.448;2023-11-22T11:43:01;5.70;;;4.05;;
49566;SDS011;35472;50.514;30.448;2023-11-22T11:45:27;4.05;;;3.35;;
49566;SDS011;35472;50.514;30.448;2023-11-22T11:47:54;7.22;;;3.88;;
49566;SDS011;35472;50.514;30.448;2023-11-22T11:50:20;5.53;;;4.30;;
49566;SDS011;35472;50.514;30.448;2023-11-22T11:52:47;6.80;;;4.43;;
49566;SDS011;35472;50.514;30.448;2023-11-22T11:55:13;4.00;;;3.00;;
49566;SDS011;35472;50.514;30.448;2023-11-22T11:57:38;6.25;;;3.80;;
49566;SDS011;35472;50.514;30.448;2023-11-22T12:00:07;7.10;;;4.50;;
49566;SDS011;35472;50.514;30.448;2023-11-22T12:02:37;5.53;;;4.25;;
49566;SDS011;35472;50.514;30.448;2023-11-22T12:05:02;6.57;;;4.50;;
49566;SDS011;35472;50.514;30.448;2023-11-22T12:07:36;4.97;;;3.58;;
49566;SDS011;35472;50.514;30.448;2023-11-22T12:10:05;6.82;;;5.18;;
49566;SDS011;35472;50.514;30.448;2023-11-22T12:12:32;6.63;;;3.92;;
49566;SDS011;35472;50.514;30.448;2023-11-22T12:14:58;6.68;;;3.75;;
49566;SDS011;35472;50.514;30.448;2023-11-22T12:17:25;5.72;;;3.83;;
49566;SDS011;35472;50.514;30.448;2023-11-22T12:19:52;5.10;;;3.45;;
49566;SDS011;35472;50.514;30.448;2023-11-22T12:22:18;7.00;;;4.00;;
49566;SDS011;35472;50.514;30.448;2023-11-22T12:24:45;4.70;;;3.45;;
49566;SDS011;35472;50.514;30.448;2023-11-22T12:27:11;7.03;;;3.65;;
49566;SDS011;35472;50.514;30.448;2023-11-22T12:29:37;9.15;;;4.10;;
49566;SDS011;35472;50.514;30.448;2023-11-22T12:32:02;5.80;;;4.10;;
49566;SDS011;35472;50.514;30.448;2023-11-22T12:34:28;9.15;;;4.93;;
49566;SDS011;35472;50.514;30.448;2023-11-22T12:36:55;6.18;;;3.60;;
49566;SDS011;35472;50.514;30.448;2023-11-22T12:39:24;6.95;;;4.45;;
49566;SDS011;35472;50.514;30.448;2023-11-22T12:41:52;11.05;;;4.45;;
49566;SDS011;35472;50.514;30.448;2023-11-22T12:44:20;8.13;;;4.47;;
49566;SDS011;35472;50.514;30.448;2023-11-22T12:46:49;5.35;;;4.85;;
49566;SDS011;35472;50.514;30.448;2023-11-22T12:49:43;12.20;;;4.88;;
49566;SDS011;35472;50.514;30.448;2023-11-22T12:52:11;7.57;;;4.55;;
49566;SDS011;35472;50.514;30.448;2023-11-22T12:54:37;8.90;;;3.50;;
49566;SDS011;35472;50.514;30.448;2023-11-22T12:57:04;7.68;;;4.82;;
49566;SDS011;35472;50.514;30.448;2023-11-22T12:59:38;8.10;;;5.10;;
49566;SDS011;35472;50.514;30.448;2023-11-22T13:02:05;8.80;;;4.70;;
49566;SDS011;35472;50.514;30.448;2023-11-22T13:04:32;6.28;;;4.28;;
49566;SDS011;35472;50.514;30.448;2023-11-22T13:06:58;5.22;;;3.55;;
49566;SDS011;35472;50.514;30.448;2023-11-22T13:09:25;6.80;;;4.03;;
49566;SDS011;35472;50.514;30.448;2023-11-22T13:11:51;6.22;;;3.38;;
49566;SDS011;35472;50.514;30.448;2023-11-22T13:14:17;6.85;;;3.42;;
49566;SDS011;35472;50.514;30.448;2023-11-22T13:16:43;6.95;;;3.72;;
49566;SDS011;35472;50.514;30.448;2023-11-22T13:19:10;4.50;;;2.45;;
49566;SDS011;35472;50.514;30.448;2023-11-22T13:21:36;6.57;;;3.40;;
49566;SDS011;35472;50.514;30.448;2023-11-22T13:24:08;7.25;;;3.83;;
49566;SDS011;35472;50.514;30.448;2023-11-22T13:26:34;5.55;;;3.05;;
49566;SDS011;35472;50.514;30.448;2023-11-22T13:29:00;4.65;;;3.13;;
49566;SDS011;35472;50.514;30.448;2023-11-22T13:31:26;5.65;;;3.85;;
49566;SDS011;35472;50.514;30.448;2023-11-22T13:33:51;5.57;;;3.08;;
49566;SDS011;35472;50.514;30.448;2023-11-22T13:36:17;6.60;;;2.80;;
49566;SDS011;35472;50.514;30.448;2023-11-22T13:38:42;7.30;;;3.65;;
49566;SDS011;35472;50.514;30.448;2023-11-22T13:41:08;6.85;;;2.88;;
49566;SDS011;35472;50.514;30.448;2023-11-22T13:43:34;3.65;;;2.42;;
49566;SDS011;35472;50.514;30.448;2023-11-22T13:46:00;6.07;;;3.22;;
49566;SDS011;35472;50.514;30.448;2023-11-22T13:48:25;5.28;;;2.33;;
49566;SDS011;35472;50.514;30.448;2023-11-22T13:50:51;4.57;;;2.28;;
49566;SDS011;35472;50.514;30.448;2023-11-22T13:53:16;5.15;;;3.15;;
49566;SDS011;35472;50.514;30.448;2023-11-22T13:55:47;3.88;;;2.03;;
49566;SDS011;35472;50.514;30.448;2023-11-22T13:58:17;3.67;;;1.85;;
49566;SDS011;35472;50.514;30.448;2023-11-22T14:00:42;3.80;;;2.55;;
49566;SDS011;35472;50.514;30.448;2023-11-22T14:03:08;2.80;;;2.45;;
49566;SDS011;35472;50.514;30.448;2023-11-22T14:05:36;3.10;;;2.17;;
49566;SDS011;35472;50.514;30.448;2023-11-22T14:08:03;2.85;;;2.05;;
49566;SDS011;35472;50.514;30.448;2023-11-22T14:10:29;4.20;;;2.25;;
49566;SDS011;35472;50.514;30.448;2023-11-22T14:12:55;3.63;;;2.00;;
49566;SDS011;35472;50.514;30.448;2023-11-22T14:15:25;3.58;;;2.53;;
49566;SDS011;35472;50.514;30.448;2023-11-22T14:17:53;3.20;;;2.10;;
49566;SDS011;35472;50.514;30.448;2023-11-22T14:20:20;4.65;;;2.90;;
49566;SDS011;35472;50.514;30.448;2023-11-22T14:22:46;5.82;;;2.75;;
49566;SDS011;35472;50.514;30.448;2023-11-22T14:25:11;6.35;;;2.60;;
49566;SDS011;35472;50.514;30.448;2023-11-22T14:27:39;8.07;;;3.42;;
49566;SDS011;35472;50.514;30.448;2023-11-22T14:30:08;6.28;;;3.47;;
49566;SDS011;35472;50.514;30.448;2023-11-22T14:32:36;5.43;;;3.22;;